sensor_id;sensor_type;location;lat;lon;timestamp;P1;durP1;ratioP1;P2;durP2;ratioP2
21758;SDS011;11041;50.854;20.580;2022-10-26T04:47:09;147.73;;;27.30;;
21758;SDS011;11041;50.854;20.580;2022-10-26T04:49:39;167.93;;;25.80;;
21758;SDS011;11041;50.854;20.580;2022-10-26T04:52:17;149.65;;;24.58;;
21758;SDS011;11041;50.854;20.580;2022-10-26T04:54:45;83.38;;;23.20;;
21758;SDS011;11041;50.854;20.580;2022-10-26T05:00:25;80.28;;;19.90;;
21758;SDS011;11041;50.854;20.580;2022-10-26T05:02:58;73.22;;;19.65;;
21758;SDS011;11041;50.854;20.580;2022-10-26T05:05:26;51.08;;;16.95;;
21758;SDS011;11041;50.854;20.580;2022-10-26T05:07:55;56.15;;;17.70;;
21758;SDS011;11041;50.854;20.580;2022-10-26T05:10:23;40.42;;;16.42;;
21758;SDS011;11041;50.854;20.580;2022-10-26T05:12:51;57.72;;;17.48;;
21758;SDS011;11041;50.854;20.580;2022-10-26T05:16:38;38.67;;;16.17;;
21758;SDS011;11041;50.854;20.580;2022-10-26T05:22:13;28.35;;;15.48;;
21758;SDS011;11041;50.854;20.580;2022-10-26T05:26:01;26.05;;;14.00;;
21758;SDS011;11041;50.854;20.580;2022-10-26T05:28:38;26.67;;;14.70;;
21758;SDS011;11041;50.854;20.580;2022-10-26T05:31:13;22.23;;;12.98;;
21758;SDS011;11041;50.854;20.580;2022-10-26T05:33:40;22.33;;;13.73;;
21758;SDS011;11041;50.854;20.580;2022-10-26T05:36:09;30.38;;;16.27;;
21758;SDS011;11041;50.854;20.580;2022-10-26T05:38:57;29.25;;;15.07;;
21758;SDS011;11041;50.854;20.580;2022-10-26T05:42:03;23.65;;;14.68;;
21758;SDS011;11041;50.854;20.580;2022-10-26T05:44:29;24.25;;;14.00;;
21758;SDS011;11041;50.854;20.580;2022-10-26T05:47:03;29.77;;;15.07;;
21758;SDS011;11041;50.854;20.580;2022-10-26T05:49:40;26.05;;;14.13;;
21758;SDS011;11041;50.854;20.580;2022-10-26T05:52:12;29.27;;;17.30;;
21758;SDS011;11041;50.854;20.580;2022-10-26T05:54:45;29.92;;;18.05;;
21758;SDS011;11041;50.854;20.580;2022-10-26T05:57:23;33.00;;;18.27;;
21758;SDS011;11041;50.854;20.580;2022-10-26T05:59:57;37.03;;;18.55;;
21758;SDS011;11041;50.854;20.580;2022-10-26T06:05:54;37.92;;;20.30;;
21758;SDS011;11041;50.854;20.580;2022-10-26T06:08:27;30.95;;;17.52;;
21758;SDS011;11041;50.854;20.580;2022-10-26T06:10:57;33.53;;;16.15;;
21758;SDS011;11041;50.854;20.580;2022-10-26T06:13:24;40.47;;;17.92;;
21758;SDS011;11041;50.854;20.580;2022-10-26T06:28:35;38.47;;;15.95;;
21758;SDS011;11041;50.854;20.580;2022-10-26T06:31:29;41.80;;;15.13;;
21758;SDS011;11041;50.854;20.580;2022-10-26T06:33:57;35.72;;;14.43;;
21758;SDS011;11041;50.854;20.580;2022-10-26T06:36:25;73.47;;;16.65;;
21758;SDS011;11041;50.854;20.580;2022-10-26T06:39:14;65.22;;;18.20;;
21758;SDS011;11041;50.854;20.580;2022-10-26T06:41:43;96.72;;;20.13;;
21758;SDS011;11041;50.854;20.580;2022-10-26T06:44:11;84.35;;;19.38;;
21758;SDS011;11041;50.854;20.580;2022-10-26T06:46:49;147.02;;;22.33;;
21758;SDS011;11041;50.854;20.580;2022-10-26T06:54:10;103.35;;;20.55;;
21758;SDS011;11041;50.854;20.580;2022-10-26T06:56:54;105.82;;;20.90;;
21758;SDS011;11041;50.854;20.580;2022-10-26T06:59:28;145.20;;;24.67;;
21758;SDS011;11041;50.854;20.580;2022-10-26T07:02:10;150.80;;;22.60;;
21758;SDS011;11041;50.854;20.580;2022-10-26T07:04:36;122.32;;;24.08;;
21758;SDS011;11041;50.854;20.580;2022-10-26T07:07:03;136.35;;;22.17;;
21758;SDS011;11041;50.854;20.580;2022-10-26T07:09:43;206.82;;;24.90;;
21758;SDS011;11041;50.854;20.580;2022-10-26T12:20:10;13.02;;;6.80;;
21758;SDS011;11041;50.854;20.580;2022-10-26T12:23:03;13.02;;;6.95;;
21758;SDS011;11041;50.854;20.580;2022-10-26T12:25:35;11.80;;;6.03;;
21758;SDS011;11041;50.854;20.580;2022-10-26T12:28:02;5.68;;;4.78;;
21758;SDS011;11041;50.854;20.580;2022-10-26T12:30:30;7.78;;;4.88;;
21758;SDS011;11041;50.854;20.580;2022-10-26T12:33:47;8.77;;;4.78;;
21758;SDS011;11041;50.854;20.580;2022-10-26T12:35:55;8.27;;;4.78;;
21758;SDS011;11041;50.854;20.580;2022-10-26T12:41:06;7.72;;;3.95;;
21758;SDS011;11041;50.854;20.580;2022-10-26T12:43:48;11.38;;;4.25;;
21758;SDS011;11041;50.854;20.580;2022-10-26T12:48:47;7.22;;;3.97;;
21758;SDS011;11041;50.854;20.580;2022-10-26T12:54:08;6.95;;;3.80;;
21758;SDS011;11041;50.854;20.580;2022-10-26T12:59:57;5.78;;;4.10;;
21758;SDS011;11041;50.854;20.580;2022-10-26T13:08:21;7.75;;;4.72;;
21758;SDS011;11041;50.854;20.580;2022-10-26T13:13:53;9.88;;;4.70;;
21758;SDS011;11041;50.854;20.580;2022-10-26T13:16:44;7.65;;;3.85;;
21758;SDS011;11041;50.854;20.580;2022-10-26T13:19:22;9.20;;;4.22;;
21758;SDS011;11041;50.854;20.580;2022-10-26T13:21:57;9.02;;;3.65;;
21758;SDS011;11041;50.854;20.580;2022-10-26T13:24:26;7.90;;;3.80;;
21758;SDS011;11041;50.854;20.580;2022-10-26T13:27:22;7.43;;;4.28;;
21758;SDS011;11041;50.854;20.580;2022-10-26T13:33:36;8.55;;;4.70;;
21758;SDS011;11041;50.854;20.580;2022-10-26T13:36:35;9.32;;;4.10;;
21758;SDS011;11041;50.854;20.580;2022-10-26T13:39:41;6.18;;;3.88;;
21758;SDS011;11041;50.854;20.580;2022-10-26T13:42:44;8.93;;;4.05;;
21758;SDS011;11041;50.854;20.580;2022-10-26T13:45:54;4.65;;;3.92;;
21758;SDS011;11041;50.854;20.580;2022-10-26T13:48:50;5.88;;;4.38;;
21758;SDS011;11041;50.854;20.580;2022-10-26T13:52:02;6.35;;;3.70;;
21758;SDS011;11041;50.854;20.580;2022-10-26T13:55:04;4.90;;;3.05;;
21758;SDS011;11041;50.854;20.580;2022-10-26T13:58:15;7.75;;;3.00;;
21758;SDS011;11041;50.854;20.580;2022-10-26T14:01:18;4.43;;;4.03;;
21758;SDS011;11041;50.854;20.580;2022-10-26T14:04:16;5.95;;;4.10;;
21758;SDS011;11041;50.854;20.580;2022-10-26T14:07:22;8.27;;;3.42;;
21758;SDS011;11041;50.854;20.580;2022-10-26T14:13:49;5.95;;;4.00;;
21758;SDS011;11041;50.854;20.580;2022-10-26T14:16:41;6.72;;;3.70;;
21758;SDS011;11041;50.854;20.580;2022-10-26T14:19:37;5.53;;;3.28;;
21758;SDS011;11041;50.854;20.580;2022-10-26T14:50:16;6.43;;;4.38;;
21758;SDS011;11041;50.854;20.580;2022-10-26T14:52:50;5.93;;;4.25;;
21758;SDS011;11041;50.854;20.580;2022-10-26T14:55:47;8.23;;;4.85;;
21758;SDS011;11041;50.854;20.580;2022-10-26T14:58:34;8.57;;;5.32;;
21758;SDS011;11041;50.854;20.580;2022-10-26T15:04:20;9.65;;;5.55;;
21758;SDS011;11041;50.854;20.580;2022-10-26T15:07:00;9.85;;;5.70;;
21758;SDS011;11041;50.854;20.580;2022-10-26T15:09:48;8.15;;;5.88;;
21758;SDS011;11041;50.854;20.580;2022-10-26T15:12:38;8.52;;;5.90;;
21758;SDS011;11041;50.854;20.580;2022-10-26T15:17:56;7.75;;;5.65;;
21758;SDS011;11041;50.854;20.580;2022-10-26T15:20:25;9.20;;;6.00;;
21758;SDS011;11041;50.854;20.580;2022-10-26T15:22:55;9.95;;;6.25;;
21758;SDS011;11041;50.854;20.580;2022-10-26T15:25:29;6.00;;;5.40;;
21758;SDS011;11041;50.854;20.580;2022-10-26T15:33:39;7.35;;;5.15;;
21758;SDS011;11041;50.854;20.580;2022-10-26T15:36:31;6.63;;;4.72;;
21758;SDS011;11041;50.854;20.580;2022-10-26T15:39:39;7.15;;;5.78;;
21758;SDS011;11041;50.854;20.580;2022-10-26T15:42:08;7.40;;;5.05;;
21758;SDS011;11041;50.854;20.580;2022-10-26T15:44:38;6.15;;;4.85;;
21758;SDS011;11041;50.854;20.580;2022-10-26T15:47:08;6.95;;;4.63;;
21758;SDS011;11041;50.854;20.580;2022-10-26T15:50:02;8.55;;;4.75;;
21758;SDS011;11041;50.854;20.580;2022-10-26T15:52:54;10.88;;;5.70;;
21758;SDS011;11041;50.854;20.580;2022-10-26T15:55:26;6.85;;;5.00;;
21758;SDS011;11041;50.854;20.580;2022-10-26T15:57:55;5.70;;;5.15;;
21758;SDS011;11041;50.854;20.580;2022-10-26T16:00:26;6.75;;;4.90;;
21758;SDS011;11041;50.854;20.580;2022-10-26T16:02:53;10.45;;;5.88;;
21758;SDS011;11041;50.854;20.580;2022-10-26T16:05:22;8.20;;;5.30;;
21758;SDS011;11041;50.854;20.580;2022-10-26T16:07:49;8.02;;;5.97;;
21758;SDS011;11041;50.854;20.580;2022-10-26T16:10:24;8.70;;;5.78;;
21758;SDS011;11041;50.854;20.580;2022-10-26T16:12:51;6.40;;;5.57;;
21758;SDS011;11041;50.854;20.580;2022-10-26T16:15:21;7.88;;;6.65;;
21758;SDS011;11041;50.854;20.580;2022-10-26T16:18:01;7.35;;;6.07;;
21758;SDS011;11041;50.854;20.580;2022-10-26T16:20:34;12.70;;;6.35;;
21758;SDS011;11041;50.854;20.580;2022-10-26T16:23:01;8.18;;;5.78;;
21758;SDS011;11041;50.854;20.580;2022-10-26T16:25:39;8.57;;;5.80;;
21758;SDS011;11041;50.854;20.580;2022-10-26T16:28:10;8.75;;;5.40;;
21758;SDS011;11041;50.854;20.580;2022-10-26T16:30:47;8.73;;;5.68;;
21758;SDS011;11041;50.854;20.580;2022-10-26T16:34:12;8.07;;;5.00;;
21758;SDS011;11041;50.854;20.580;2022-10-26T16:44:54;9.85;;;6.35;;
21758;SDS011;11041;50.854;20.580;2022-10-26T16:47:32;10.20;;;5.47;;
21758;SDS011;11041;50.854;20.580;2022-10-26T16:50:01;33.25;;;7.40;;
21758;SDS011;11041;50.854;20.580;2022-10-26T16:52:32;11.85;;;7.22;;
21758;SDS011;11041;50.854;20.580;2022-10-26T16:55:34;17.88;;;8.20;;
21758;SDS011;11041;50.854;20.580;2022-10-26T16:59:15;13.25;;;8.15;;
21758;SDS011;11041;50.854;20.580;2022-10-26T17:04:52;19.25;;;8.35;;
21758;SDS011;11041;50.854;20.580;2022-10-26T17:07:22;16.08;;;10.05;;
21758;SDS011;11041;50.854;20.580;2022-10-26T17:13:30;14.05;;;7.97;;
21758;SDS011;11041;50.854;20.580;2022-10-26T17:16:44;12.30;;;8.35;;
21758;SDS011;11041;50.854;20.580;2022-10-26T17:22:27;11.25;;;7.55;;
21758;SDS011;11041;50.854;20.580;2022-10-26T17:25:02;10.55;;;8.23;;
21758;SDS011;11041;50.854;20.580;2022-10-26T17:27:32;14.52;;;8.60;;
21758;SDS011;11041;50.854;20.580;2022-10-26T17:29:59;19.83;;;13.55;;
21758;SDS011;11041;50.854;20.580;2022-10-26T17:32:31;16.30;;;12.85;;
21758;SDS011;11041;50.854;20.580;2022-10-26T17:35:00;21.88;;;15.65;;
21758;SDS011;11041;50.854;20.580;2022-10-26T17:37:28;19.10;;;11.93;;
21758;SDS011;11041;50.854;20.580;2022-10-26T17:39:58;17.58;;;11.30;;
21758;SDS011;11041;50.854;20.580;2022-10-26T17:42:35;12.90;;;9.98;;
21758;SDS011;11041;50.854;20.580;2022-10-26T17:45:02;17.85;;;11.38;;
21758;SDS011;11041;50.854;20.580;2022-10-26T17:47:29;13.90;;;9.35;;
21758;SDS011;11041;50.854;20.580;2022-10-26T17:50:07;12.13;;;8.40;;
21758;SDS011;11041;50.854;20.580;2022-10-26T17:52:38;10.63;;;7.65;;
21758;SDS011;11041;50.854;20.580;2022-10-26T17:55:14;13.40;;;8.85;;
21758;SDS011;11041;50.854;20.580;2022-10-26T17:57:45;16.88;;;9.85;;
21758;SDS011;11041;50.854;20.580;2022-10-26T18:00:18;14.68;;;9.05;;
21758;SDS011;11041;50.854;20.580;2022-10-26T18:03:15;11.10;;;8.73;;
21758;SDS011;11041;50.854;20.580;2022-10-26T18:05:47;12.27;;;8.32;;
21758;SDS011;11041;50.854;20.580;2022-10-26T18:09:09;10.20;;;7.55;;
21758;SDS011;11041;50.854;20.580;2022-10-26T18:16:05;9.75;;;7.07;;
21758;SDS011;11041;50.854;20.580;2022-10-26T18:18:59;8.73;;;6.20;;
21758;SDS011;11041;50.854;20.580;2022-10-26T18:21:31;7.45;;;6.18;;
21758;SDS011;11041;50.854;20.580;2022-10-26T18:24:02;11.60;;;6.65;;
21758;SDS011;11041;50.854;20.580;2022-10-26T18:26:30;8.95;;;6.35;;
21758;SDS011;11041;50.854;20.580;2022-10-26T18:28:57;9.50;;;6.95;;
21758;SDS011;11041;50.854;20.580;2022-10-26T18:32:20;8.50;;;6.20;;
21758;SDS011;11041;50.854;20.580;2022-10-26T18:34:47;10.15;;;6.43;;
21758;SDS011;11041;50.854;20.580;2022-10-26T18:37:13;9.88;;;6.10;;
21758;SDS011;11041;50.854;20.580;2022-10-26T18:39:39;10.23;;;6.25;;
21758;SDS011;11041;50.854;20.580;2022-10-26T18:42:06;8.73;;;6.65;;
21758;SDS011;11041;50.854;20.580;2022-10-26T18:44:32;10.00;;;6.60;;
21758;SDS011;11041;50.854;20.580;2022-10-26T18:46:59;12.50;;;6.90;;
21758;SDS011;11041;50.854;20.580;2022-10-26T18:49:25;8.95;;;6.63;;
21758;SDS011;11041;50.854;20.580;2022-10-26T18:51:52;9.95;;;6.25;;
21758;SDS011;11041;50.854;20.580;2022-10-26T18:54:18;10.80;;;6.95;;
21758;SDS011;11041;50.854;20.580;2022-10-26T18:56:46;11.45;;;7.82;;
21758;SDS011;11041;50.854;20.580;2022-10-26T18:59:51;9.40;;;6.63;;
21758;SDS011;11041;50.854;20.580;2022-10-26T19:02:39;12.35;;;7.40;;
21758;SDS011;11041;50.854;20.580;2022-10-26T19:09:44;13.65;;;8.95;;
21758;SDS011;11041;50.854;20.580;2022-10-26T19:12:11;10.77;;;8.70;;
21758;SDS011;11041;50.854;20.580;2022-10-26T19:14:51;14.70;;;9.30;;
21758;SDS011;11041;50.854;20.580;2022-10-26T19:17:18;15.65;;;10.63;;
21758;SDS011;11041;50.854;20.580;2022-10-26T19:19:48;19.60;;;12.90;;
21758;SDS011;11041;50.854;20.580;2022-10-26T19:22:17;26.83;;;17.42;;
21758;SDS011;11041;50.854;20.580;2022-10-26T19:24:43;21.77;;;14.75;;
21758;SDS011;11041;50.854;20.580;2022-10-26T19:27:12;20.70;;;13.48;;
21758;SDS011;11041;50.854;20.580;2022-10-26T19:29:38;21.45;;;12.20;;
21758;SDS011;11041;50.854;20.580;2022-10-26T19:32:05;23.95;;;15.20;;
21758;SDS011;11041;50.854;20.580;2022-10-26T19:34:32;17.23;;;12.95;;
21758;SDS011;11041;50.854;20.580;2022-10-26T19:37:36;19.38;;;13.45;;
21758;SDS011;11041;50.854;20.580;2022-10-26T19:40:26;22.33;;;15.30;;
21758;SDS011;11041;50.854;20.580;2022-10-26T19:42:53;21.45;;;15.98;;
21758;SDS011;11041;50.854;20.580;2022-10-26T19:45:19;21.10;;;15.48;;
21758;SDS011;11041;50.854;20.580;2022-10-26T19:47:46;28.75;;;18.00;;
21758;SDS011;11041;50.854;20.580;2022-10-26T19:50:13;28.02;;;18.63;;
21758;SDS011;11041;50.854;20.580;2022-10-26T19:52:40;24.88;;;16.75;;
21758;SDS011;11041;50.854;20.580;2022-10-26T19:55:07;28.20;;;17.70;;
21758;SDS011;11041;50.854;20.580;2022-10-26T19:57:34;25.60;;;17.23;;
21758;SDS011;11041;50.854;20.580;2022-10-26T20:00:02;27.85;;;18.02;;
21758;SDS011;11041;50.854;20.580;2022-10-26T20:02:29;31.25;;;20.48;;
21758;SDS011;11041;50.854;20.580;2022-10-26T20:04:56;33.72;;;21.20;;
21758;SDS011;11041;50.854;20.580;2022-10-26T20:07:22;30.17;;;21.27;;
21758;SDS011;11041;50.854;20.580;2022-10-26T20:09:49;36.95;;;22.83;;
21758;SDS011;11041;50.854;20.580;2022-10-26T20:12:16;88.43;;;50.75;;
21758;SDS011;11041;50.854;20.580;2022-10-26T20:14:42;121.72;;;67.57;;
21758;SDS011;11041;50.854;20.580;2022-10-26T20:17:09;112.30;;;60.80;;
21758;SDS011;11041;50.854;20.580;2022-10-26T20:19:35;100.55;;;56.15;;
21758;SDS011;11041;50.854;20.580;2022-10-26T20:22:02;82.97;;;48.30;;
21758;SDS011;11041;50.854;20.580;2022-10-26T20:24:28;81.28;;;47.58;;
21758;SDS011;11041;50.854;20.580;2022-10-26T20:26:55;79.20;;;47.47;;
21758;SDS011;11041;50.854;20.580;2022-10-26T20:29:24;79.18;;;46.03;;
21758;SDS011;11041;50.854;20.580;2022-10-26T20:31:51;73.32;;;43.45;;
21758;SDS011;11041;50.854;20.580;2022-10-26T20:34:17;73.55;;;41.78;;
21758;SDS011;11041;50.854;20.580;2022-10-26T20:36:44;70.63;;;43.28;;
21758;SDS011;11041;50.854;20.580;2022-10-26T20:39:10;68.30;;;41.47;;
21758;SDS011;11041;50.854;20.580;2022-10-26T20:41:41;65.40;;;39.90;;
21758;SDS011;11041;50.854;20.580;2022-10-26T20:44:15;61.63;;;38.92;;
21758;SDS011;11041;50.854;20.580;2022-10-26T20:46:50;61.53;;;38.17;;
21758;SDS011;11041;50.854;20.580;2022-10-26T20:49:17;66.88;;;40.15;;
21758;SDS011;11041;50.854;20.580;2022-10-26T20:51:45;58.83;;;37.63;;
21758;SDS011;11041;50.854;20.580;2022-10-26T20:54:47;67.22;;;41.03;;
21758;SDS011;11041;50.854;20.580;2022-10-26T20:57:27;67.90;;;42.70;;
21758;SDS011;11041;50.854;20.580;2022-10-26T21:00:02;74.00;;;47.78;;
21758;SDS011;11041;50.854;20.580;2022-10-26T21:02:33;83.10;;;48.53;;
21758;SDS011;11041;50.854;20.580;2022-10-26T21:05:00;70.30;;;45.70;;
21758;SDS011;11041;50.854;20.580;2022-10-26T21:07:27;91.85;;;50.70;;
21758;SDS011;11041;50.854;20.580;2022-10-26T21:09:54;99.57;;;54.53;;
21758;SDS011;11041;50.854;20.580;2022-10-26T21:12:21;98.45;;;55.90;;
21758;SDS011;11041;50.854;20.580;2022-10-26T21:14:47;97.32;;;54.33;;
21758;SDS011;11041;50.854;20.580;2022-10-26T21:17:14;100.40;;;53.38;;
21758;SDS011;11041;50.854;20.580;2022-10-26T21:19:40;101.47;;;56.80;;
21758;SDS011;11041;50.854;20.580;2022-10-26T21:22:07;93.28;;;55.90;;
21758;SDS011;11041;50.854;20.580;2022-10-26T21:24:34;92.78;;;54.33;;
21758;SDS011;11041;50.854;20.580;2022-10-26T21:27:01;86.22;;;52.13;;
21758;SDS011;11041;50.854;20.580;2022-10-26T21:29:28;92.50;;;56.72;;
21758;SDS011;11041;50.854;20.580;2022-10-26T21:31:56;91.80;;;54.67;;
21758;SDS011;11041;50.854;20.580;2022-10-26T21:34:23;94.93;;;56.80;;
21758;SDS011;11041;50.854;20.580;2022-10-26T21:36:50;94.72;;;55.33;;
21758;SDS011;11041;50.854;20.580;2022-10-26T21:39:16;100.90;;;54.80;;
21758;SDS011;11041;50.854;20.580;2022-10-26T21:41:43;96.07;;;57.00;;
21758;SDS011;11041;50.854;20.580;2022-10-26T21:44:09;102.13;;;58.22;;
21758;SDS011;11041;50.854;20.580;2022-10-26T21:46:36;101.28;;;60.22;;
21758;SDS011;11041;50.854;20.580;2022-10-26T21:49:19;111.85;;;61.28;;
21758;SDS011;11041;50.854;20.580;2022-10-26T21:52:32;95.03;;;54.95;;
21758;SDS011;11041;50.854;20.580;2022-10-26T21:54:59;105.65;;;59.92;;
21758;SDS011;11041;50.854;20.580;2022-10-26T21:57:26;103.93;;;60.80;;
21758;SDS011;11041;50.854;20.580;2022-10-26T22:03:45;97.85;;;55.78;;
21758;SDS011;11041;50.854;20.580;2022-10-26T22:06:17;82.25;;;50.03;;
21758;SDS011;11041;50.854;20.580;2022-10-26T22:08:59;93.57;;;52.38;;
21758;SDS011;11041;50.854;20.580;2022-10-26T22:11:29;88.25;;;51.25;;
21758;SDS011;11041;50.854;20.580;2022-10-26T22:13:56;82.97;;;50.25;;
21758;SDS011;11041;50.854;20.580;2022-10-26T22:16:24;80.10;;;50.50;;
21758;SDS011;11041;50.854;20.580;2022-10-26T22:19:28;75.65;;;47.00;;
21758;SDS011;11041;50.854;20.580;2022-10-26T22:21:55;79.38;;;49.80;;
21758;SDS011;11041;50.854;20.580;2022-10-26T22:24:27;85.10;;;50.00;;
21758;SDS011;11041;50.854;20.580;2022-10-26T22:27:04;78.47;;;47.95;;
21758;SDS011;11041;50.854;20.580;2022-10-26T22:36:14;78.38;;;50.15;;
21758;SDS011;11041;50.854;20.580;2022-10-26T22:39:04;80.95;;;49.15;;
21758;SDS011;11041;50.854;20.580;2022-10-26T22:41:30;85.25;;;49.90;;
21758;SDS011;11041;50.854;20.580;2022-10-26T22:43:57;85.50;;;52.03;;
21758;SDS011;11041;50.854;20.580;2022-10-26T22:46:25;84.93;;;52.47;;
21758;SDS011;11041;50.854;20.580;2022-10-26T22:48:57;85.80;;;51.15;;
21758;SDS011;11041;50.854;20.580;2022-10-26T22:51:26;102.80;;;59.65;;
21758;SDS011;11041;50.854;20.580;2022-10-26T22:53:59;100.30;;;55.85;;
21758;SDS011;11041;50.854;20.580;2022-10-26T22:56:28;88.30;;;55.03;;
21758;SDS011;11041;50.854;20.580;2022-10-26T22:58:57;97.22;;;55.72;;
21758;SDS011;11041;50.854;20.580;2022-10-26T23:01:25;89.03;;;54.55;;
21758;SDS011;11041;50.854;20.580;2022-10-26T23:03:55;84.07;;;51.55;;
21758;SDS011;11041;50.854;20.580;2022-10-26T23:06:23;94.60;;;54.58;;
21758;SDS011;11041;50.854;20.580;2022-10-26T23:08:52;93.53;;;55.30;;
21758;SDS011;11041;50.854;20.580;2022-10-26T23:11:19;96.38;;;54.80;;
21758;SDS011;11041;50.854;20.580;2022-10-26T23:13:51;86.57;;;54.00;;
21758;SDS011;11041;50.854;20.580;2022-10-26T23:16:22;97.70;;;55.05;;
21758;SDS011;11041;50.854;20.580;2022-10-26T23:18:49;91.85;;;54.50;;
21758;SDS011;11041;50.854;20.580;2022-10-26T23:21:20;84.35;;;51.45;;
21758;SDS011;11041;50.854;20.580;2022-10-26T23:23:49;88.97;;;55.10;;
21758;SDS011;11041;50.854;20.580;2022-10-26T23:26:17;105.90;;;58.70;;
21758;SDS011;11041;50.854;20.580;2022-10-26T23:28:48;91.28;;;53.47;;
21758;SDS011;11041;50.854;20.580;2022-10-26T23:31:18;88.60;;;52.72;;
21758;SDS011;11041;50.854;20.580;2022-10-26T23:33:50;88.35;;;50.80;;
21758;SDS011;11041;50.854;20.580;2022-10-26T23:36:19;84.75;;;51.67;;
21758;SDS011;11041;50.854;20.580;2022-10-26T23:38:45;87.82;;;50.75;;
21758;SDS011;11041;50.854;20.580;2022-10-26T23:41:13;83.15;;;48.80;;
21758;SDS011;11041;50.854;20.580;2022-10-26T23:43:40;72.32;;;47.13;;
21758;SDS011;11041;50.854;20.580;2022-10-26T23:46:07;78.85;;;46.92;;
21758;SDS011;11041;50.854;20.580;2022-10-26T23:48:34;72.25;;;46.70;;
21758;SDS011;11041;50.854;20.580;2022-10-26T23:51:01;68.97;;;44.83;;
21758;SDS011;11041;50.854;20.580;2022-10-26T23:53:28;69.20;;;43.85;;
21758;SDS011;11041;50.854;20.580;2022-10-26T23:55:54;76.82;;;47.78;;
21758;SDS011;11041;50.854;20.580;2022-10-26T23:58:21;69.40;;;44.33;;
